createdAt,value
2018-08-08T00:01:09.818Z,0
2018-08-08T00:02:19.964Z,0
2018-08-08T00:03:29.840Z,0
2018-08-08T00:04:40.044Z,0
2018-08-08T00:05:50.190Z,0
2018-08-08T00:07:00.352Z,0
2018-08-08T00:08:10.512Z,0
2018-08-08T00:09:20.658Z,0
2018-08-08T00:10:30.790Z,0
2018-08-08T00:11:41.120Z,0
2018-08-08T00:12:50.758Z,0
2018-08-08T00:14:00.911Z,0
2018-08-08T00:15:11.132Z,0
2018-08-08T00:16:21.321Z,0
2018-08-08T00:17:31.507Z,0
2018-08-08T00:18:41.418Z,0
2018-08-08T00:19:51.551Z,0
2018-08-08T00:21:01.418Z,0
2018-08-08T00:22:11.551Z,0
2018-08-08T00:23:21.746Z,0
2018-08-08T00:24:31.877Z,0
2018-08-08T00:25:42.006Z,0
2018-08-08T00:26:52.204Z,0
2018-08-08T00:28:02.396Z,0
2018-08-08T00:29:12.518Z,0
2018-08-08T00:30:22.658Z,0
2018-08-08T00:31:32.808Z,0
2018-08-08T00:32:43.174Z,0
2018-08-08T00:33:52.934Z,0
2018-08-08T00:35:03.056Z,0
2018-08-08T00:36:14.176Z,0
2018-08-08T00:37:24.314Z,0
2018-08-08T00:38:34.478Z,0
2018-08-08T00:39:45.734Z,0
2018-08-08T00:40:55.906Z,0
2018-08-08T00:42:06.059Z,0
2018-08-08T00:43:16.288Z,0
2018-08-08T00:44:26.440Z,0
2018-08-08T00:45:36.256Z,0
2018-08-08T00:46:46.424Z,0
2018-08-08T00:47:56.543Z,0
2018-08-08T00:49:06.690Z,0
2018-08-08T00:50:17.029Z,0
2018-08-08T00:51:27.152Z,0
2018-08-08T00:52:37.295Z,0
2018-08-08T00:53:47.441Z,0
2018-08-08T00:54:57.066Z,0
2018-08-08T00:56:07.228Z,0
2018-08-08T00:57:17.425Z,0
2018-08-08T00:58:27.604Z,0
2018-08-08T00:59:37.769Z,0
2018-08-08T01:00:47.902Z,0
2018-08-08T01:01:58.043Z,0
2018-08-08T01:03:08.179Z,0
2018-08-08T01:04:18.313Z,0
2018-08-08T01:05:28.577Z,0
2018-08-08T01:06:39.707Z,0
2018-08-08T01:07:49.950Z,0
2018-08-08T01:09:01.237Z,0
2018-08-08T01:10:11.464Z,0
2018-08-08T01:11:21.640Z,0
2018-08-08T01:12:31.818Z,0
2018-08-08T01:13:41.998Z,0
2018-08-08T01:14:51.892Z,0
2018-08-08T01:16:02.353Z,0
2018-08-08T01:17:12.483Z,0
2018-08-08T01:18:22.352Z,0
2018-08-08T01:19:32.775Z,0
2018-08-08T01:20:43.090Z,0
2018-08-08T01:21:53.286Z,0
2018-08-08T01:23:03.453Z,0
2018-08-08T01:24:13.657Z,0
2018-08-08T01:25:24.007Z,0
2018-08-08T01:26:34.132Z,0
2018-08-08T01:27:44.020Z,0
2018-08-08T01:28:54.197Z,0
2018-08-08T01:30:04.279Z,0
2018-08-08T01:31:14.415Z,0
2018-08-08T01:32:24.649Z,0
2018-08-08T01:33:34.823Z,0
2018-08-08T01:34:44.992Z,0
2018-08-08T01:35:54.786Z,0
2018-08-08T01:37:05.226Z,0
2018-08-08T01:38:15.367Z,0
2018-08-08T01:39:25.671Z,0
2018-08-08T01:40:35.806Z,0
2018-08-08T01:41:46.015Z,0
2018-08-08T01:42:56.168Z,0
2018-08-08T01:44:06.098Z,0
2018-08-08T01:45:16.010Z,0
2018-08-08T01:46:26.218Z,0
2018-08-08T01:47:36.385Z,0
2018-08-08T01:48:46.504Z,0
2018-08-08T01:49:56.679Z,0
2018-08-08T01:51:06.918Z,0
2018-08-08T01:52:17.119Z,0
2018-08-08T01:53:27.320Z,0
2018-08-08T01:54:37.479Z,0
2018-08-08T01:55:47.718Z,0
2018-08-08T01:56:57.898Z,0
2018-08-08T01:58:08.095Z,0
2018-08-08T01:59:18.378Z,0
2018-08-08T02:00:28.577Z,0
2018-08-08T02:01:38.883Z,0
2018-08-08T02:02:49.129Z,0
2018-08-08T02:03:59.528Z,0
2018-08-08T02:05:09.717Z,0
2018-08-08T02:06:19.862Z,0
2018-08-08T02:07:30.011Z,0
2018-08-08T02:08:40.246Z,0
2018-08-08T02:09:50.380Z,0
2018-08-08T02:11:00.638Z,0
2018-08-08T02:12:10.831Z,0
2018-08-08T02:13:20.722Z,0
2018-08-08T02:14:30.586Z,0
2018-08-08T02:15:40.392Z,0
2018-08-08T02:16:50.720Z,0
2018-08-08T02:18:01.011Z,0
2018-08-08T02:19:11.786Z,0
2018-08-08T02:20:21.928Z,0
2018-08-08T02:21:31.737Z,0
2018-08-08T02:22:41.708Z,0
2018-08-08T02:23:51.684Z,0
2018-08-08T02:25:01.911Z,0
2018-08-08T02:26:12.053Z,0
2018-08-08T02:27:21.943Z,0
2018-08-08T02:28:31.965Z,0
2018-08-08T02:29:42.146Z,0
2018-08-08T02:30:52.314Z,0
2018-08-08T02:32:02.532Z,0
2018-08-08T02:33:12.967Z,0
2018-08-08T02:34:23.204Z,0
2018-08-08T02:35:33.343Z,0
2018-08-08T02:36:43.478Z,0
2018-08-08T02:37:53.669Z,0
2018-08-08T02:39:03.823Z,0
2018-08-08T02:40:13.999Z,0
2018-08-08T02:41:23.981Z,0
2018-08-08T02:42:34.176Z,0
2018-08-08T02:43:44.340Z,0
2018-08-08T02:44:54.569Z,0
2018-08-08T02:46:04.493Z,0
2018-08-08T02:47:14.648Z,0
2018-08-08T02:48:24.877Z,0
2018-08-08T02:49:35.170Z,0
2018-08-08T02:50:45.436Z,0
2018-08-08T02:51:55.210Z,0
2018-08-08T02:53:05.364Z,0
2018-08-08T02:54:15.511Z,0
2018-08-08T02:55:25.676Z,0
2018-08-08T02:56:35.857Z,0
2018-08-08T02:57:46.100Z,0
2018-08-08T02:58:56.240Z,0
2018-08-08T03:00:06.487Z,0
2018-08-08T03:01:16.370Z,0
2018-08-08T03:02:26.511Z,0
2018-08-08T03:03:36.723Z,0
2018-08-08T03:04:46.955Z,0
2018-08-08T03:05:57.224Z,0
2018-08-08T03:07:07.491Z,0
2018-08-08T03:08:17.709Z,0
2018-08-08T03:09:27.914Z,0
2018-08-08T03:10:38.079Z,0
2018-08-08T03:11:48.219Z,0
2018-08-08T03:12:58.434Z,0
2018-08-08T03:14:08.626Z,0
2018-08-08T03:15:18.919Z,0
2018-08-08T03:16:29.159Z,0
2018-08-08T03:17:39.067Z,0
2018-08-08T03:18:49.216Z,0
2018-08-08T03:19:59.345Z,0
2018-08-08T03:21:09.555Z,0
2018-08-08T03:22:19.806Z,0
2018-08-08T03:23:29.943Z,0
2018-08-08T03:24:40.126Z,0
2018-08-08T03:25:51.460Z,0
2018-08-08T03:27:01.684Z,0
2018-08-08T03:28:11.905Z,0
2018-08-08T03:29:22.060Z,0
2018-08-08T03:30:32.269Z,0
2018-08-08T03:31:42.442Z,0
2018-08-08T03:32:52.602Z,0
2018-08-08T03:34:02.841Z,0
2018-08-08T03:35:13.028Z,0
2018-08-08T03:36:23.343Z,0
2018-08-08T03:37:33.779Z,0
2018-08-08T03:38:43.939Z,0
2018-08-08T03:39:54.085Z,0
2018-08-08T03:41:04.257Z,0
2018-08-08T03:42:14.139Z,0
2018-08-08T03:43:24.007Z,0
2018-08-08T03:44:34.128Z,5
2018-08-08T03:45:44.269Z,5
2018-08-08T03:46:54.401Z,5
2018-08-08T03:48:04.573Z,5
2018-08-08T03:49:14.781Z,5
2018-08-08T03:50:25.016Z,5
2018-08-08T03:51:35.168Z,5
2018-08-08T03:52:45.291Z,5
2018-08-08T03:53:55.415Z,10
2018-08-08T03:55:05.748Z,10
2018-08-08T03:56:16.003Z,10
2018-08-08T03:57:26.131Z,10
2018-08-08T03:58:36.261Z,10
2018-08-08T03:59:46.415Z,10
2018-08-08T04:00:56.639Z,15
2018-08-08T04:02:06.875Z,15
2018-08-08T04:03:17.117Z,15
2018-08-08T04:04:27.330Z,15
2018-08-08T04:05:37.776Z,15
2018-08-08T04:06:47.963Z,20
2018-08-08T04:07:58.127Z,20
2018-08-08T04:09:08.357Z,20
2018-08-08T04:10:18.498Z,20
2018-08-08T04:11:28.373Z,20
2018-08-08T04:12:38.520Z,25
2018-08-08T04:13:48.149Z,25
2018-08-08T04:14:59.280Z,25
2018-08-08T04:16:09.486Z,25
2018-08-08T04:17:19.997Z,30
2018-08-08T04:18:30.163Z,30
2018-08-08T04:19:40.292Z,30
2018-08-08T04:20:50.432Z,30
2018-08-08T04:22:00.576Z,30
2018-08-08T04:23:10.791Z,35
2018-08-08T04:24:21.126Z,35
2018-08-08T04:25:31.337Z,35
2018-08-08T04:26:41.225Z,35
2018-08-08T04:27:50.583Z,40
2018-08-08T04:29:00.483Z,40
2018-08-08T04:30:10.666Z,40
2018-08-08T04:31:20.656Z,40
2018-08-08T04:32:31.796Z,45
2018-08-08T04:33:41.940Z,45
2018-08-08T04:34:52.119Z,45
2018-08-08T04:36:01.732Z,45
2018-08-08T04:37:11.908Z,45
2018-08-08T04:38:22.060Z,50
2018-08-08T04:39:32.184Z,50
2018-08-08T04:40:42.301Z,50
2018-08-08T04:41:52.550Z,55
2018-08-08T04:43:02.726Z,55
2018-08-08T04:44:12.911Z,60
2018-08-08T04:45:22.848Z,65
2018-08-08T04:46:32.990Z,60
2018-08-08T04:47:43.125Z,60
2018-08-08T04:48:53.002Z,60
2018-08-08T04:50:03.146Z,60
2018-08-08T04:51:13.347Z,65
2018-08-08T04:52:23.488Z,65
2018-08-08T04:53:33.285Z,65
2018-08-08T04:54:43.454Z,65
2018-08-08T04:55:53.697Z,65
2018-08-08T04:57:03.870Z,65
2018-08-08T04:58:14.067Z,70
2018-08-08T04:59:24.302Z,70
2018-08-08T05:00:34.404Z,75
2018-08-08T05:01:44.398Z,75
2018-08-08T05:02:54.540Z,75
2018-08-08T05:04:04.410Z,80
2018-08-08T05:05:14.534Z,80
2018-08-08T05:06:24.680Z,85
2018-08-08T05:07:34.805Z,85
2018-08-08T05:08:44.795Z,90
2018-08-08T05:09:54.740Z,90
2018-08-08T05:11:04.887Z,90
2018-08-08T05:12:15.223Z,95
2018-08-08T05:13:25.125Z,95
2018-08-08T05:14:34.989Z,100
2018-08-08T05:15:45.115Z,100
2018-08-08T05:16:55.281Z,100
2018-08-08T05:18:05.487Z,100
2018-08-08T05:19:15.724Z,105
2018-08-08T05:20:26.482Z,105
2018-08-08T05:21:36.705Z,105
2018-08-08T05:22:46.856Z,105
2018-08-08T05:23:57.003Z,100
2018-08-08T05:25:06.528Z,100
2018-08-08T05:26:16.647Z,105
2018-08-08T05:27:26.770Z,105
2018-08-08T05:28:36.947Z,105
2018-08-08T05:29:47.101Z,105
2018-08-08T05:30:57.252Z,105
2018-08-08T05:32:07.511Z,105
2018-08-08T05:33:17.674Z,110
2018-08-08T05:34:27.840Z,110
2018-08-08T05:35:38.174Z,110
2018-08-08T05:36:48.492Z,115
2018-08-08T05:37:58.659Z,115
2018-08-08T05:39:08.470Z,115
2018-08-08T05:40:18.617Z,115
2018-08-08T05:41:28.855Z,120
2018-08-08T05:42:39.080Z,120
2018-08-08T05:43:49.235Z,120
2018-08-08T05:44:59.393Z,125
2018-08-08T05:46:09.536Z,125
2018-08-08T05:47:19.682Z,130
2018-08-08T05:48:29.845Z,130
2018-08-08T05:49:40.002Z,130
2018-08-08T05:50:50.200Z,135
2018-08-08T05:52:00.442Z,135
2018-08-08T05:53:10.583Z,135
2018-08-08T05:54:20.570Z,140
2018-08-08T05:55:30.556Z,140
2018-08-08T05:56:40.755Z,140
2018-08-08T05:57:51.099Z,140
2018-08-08T05:59:01.024Z,140
2018-08-08T06:00:11.149Z,145
2018-08-08T06:01:21.280Z,145
2018-08-08T06:02:31.430Z,150
2018-08-08T06:03:41.559Z,150
2018-08-08T06:04:51.679Z,150
2018-08-08T06:06:02.158Z,150
2018-08-08T06:07:12.352Z,155
2018-08-08T06:08:22.727Z,155
2018-08-08T06:09:32.884Z,160
2018-08-08T06:10:43.036Z,155
2018-08-08T06:11:53.228Z,165
2018-08-08T06:13:03.106Z,170
2018-08-08T06:14:13.226Z,180
2018-08-08T06:15:23.487Z,175
2018-08-08T06:16:33.726Z,175
2018-08-08T06:17:43.900Z,175
2018-08-08T06:18:54.084Z,175
2018-08-08T06:20:04.836Z,175
2018-08-08T06:21:14.988Z,175
2018-08-08T06:22:25.168Z,175
2018-08-08T06:23:35.525Z,180
2018-08-08T06:24:45.670Z,185
2018-08-08T06:25:56.813Z,185
2018-08-08T06:27:06.979Z,180
2018-08-08T06:28:17.258Z,180
2018-08-08T06:29:27.405Z,180
2018-08-08T06:30:37.727Z,175
2018-08-08T06:31:47.997Z,180
2018-08-08T06:32:57.884Z,185
2018-08-08T06:34:08.092Z,185
2018-08-08T06:35:18.235Z,190
2018-08-08T06:36:28.134Z,190
2018-08-08T06:37:37.768Z,195
2018-08-08T06:38:47.920Z,200
2018-08-08T06:39:58.116Z,210
2018-08-08T06:41:08.009Z,200
2018-08-08T06:42:18.184Z,205
2018-08-08T06:43:28.610Z,215
2018-08-08T06:44:39.732Z,225
2018-08-08T06:45:49.876Z,225
2018-08-08T06:46:59.790Z,230
2018-08-08T06:48:09.937Z,230
2018-08-08T06:49:19.696Z,230
2018-08-08T06:50:29.874Z,240
2018-08-08T06:51:40.011Z,245
2018-08-08T06:52:50.152Z,245
2018-08-08T06:54:00.034Z,230
2018-08-08T06:55:09.928Z,220
2018-08-08T06:56:19.887Z,210
2018-08-08T06:57:30.016Z,200
2018-08-08T06:58:40.271Z,200
2018-08-08T06:59:50.598Z,200
2018-08-08T07:01:00.479Z,205
2018-08-08T07:02:10.603Z,210
2018-08-08T07:03:20.718Z,215
2018-08-08T07:04:30.668Z,215
2018-08-08T07:05:41.283Z,215
2018-08-08T07:06:51.415Z,215
2018-08-08T07:08:01.768Z,220
2018-08-08T07:09:11.939Z,220
2018-08-08T07:10:22.105Z,225
2018-08-08T07:11:32.309Z,225
2018-08-08T07:12:42.518Z,230
2018-08-08T07:13:52.761Z,230
2018-08-08T07:15:02.900Z,235
2018-08-08T07:16:12.777Z,240
2018-08-08T07:17:22.918Z,240
2018-08-08T07:18:33.068Z,245
2018-08-08T07:19:43.272Z,250
2018-08-08T07:20:53.314Z,255
2018-08-08T07:22:03.587Z,260
2018-08-08T07:23:13.492Z,265
2018-08-08T07:24:23.713Z,265
2018-08-08T07:25:34.459Z,270
2018-08-08T07:26:44.599Z,275
2018-08-08T07:27:54.535Z,280
2018-08-08T07:29:04.928Z,280
2018-08-08T07:30:15.137Z,285
2018-08-08T07:31:25.310Z,295
2018-08-08T07:32:35.449Z,295
2018-08-08T07:33:45.648Z,300
2018-08-08T07:34:55.816Z,305
2018-08-08T07:36:05.949Z,305
2018-08-08T07:37:16.132Z,310
2018-08-08T07:38:26.285Z,315
2018-08-08T07:39:36.533Z,315
2018-08-08T07:40:46.781Z,320
2018-08-08T07:41:56.995Z,330
2018-08-08T07:43:07.171Z,330
2018-08-08T07:44:17.316Z,335
2018-08-08T07:45:27.587Z,340
2018-08-08T07:46:37.903Z,360
2018-08-08T07:47:48.221Z,375
2018-08-08T07:48:58.138Z,390
2018-08-08T07:50:09.597Z,410
2018-08-08T07:51:19.847Z,420
2018-08-08T07:52:29.995Z,420
2018-08-08T07:53:40.389Z,455
2018-08-08T07:54:50.741Z,450
2018-08-08T07:56:00.933Z,470
2018-08-08T07:57:11.193Z,460
2018-08-08T07:58:22.293Z,460
2018-08-08T07:59:32.521Z,465
2018-08-08T08:00:42.471Z,465
2018-08-08T08:01:52.681Z,460
2018-08-08T08:03:02.952Z,475
2018-08-08T08:04:13.095Z,495
2018-08-08T08:05:23.276Z,515
2018-08-08T08:06:33.680Z,505
2018-08-08T08:07:43.811Z,475
2018-08-08T08:08:54.095Z,490
2018-08-08T08:10:04.292Z,505
2018-08-08T08:11:14.517Z,520
2018-08-08T08:12:24.751Z,545
2018-08-08T08:13:34.908Z,545
2018-08-08T08:14:46.032Z,530
2018-08-08T08:15:56.220Z,530
2018-08-08T08:17:06.385Z,540
2018-08-08T08:18:16.597Z,530
2018-08-08T08:19:26.917Z,485
2018-08-08T08:20:37.170Z,430
2018-08-08T08:21:47.432Z,380
2018-08-08T08:22:57.712Z,340
2018-08-08T08:24:07.938Z,320
2018-08-08T08:25:18.128Z,315
2018-08-08T08:26:27.977Z,325
2018-08-08T08:27:38.211Z,340
2018-08-08T08:28:48.405Z,350
2018-08-08T08:29:59.069Z,370
2018-08-08T08:31:09.337Z,390
2018-08-08T08:32:19.474Z,410
2018-08-08T08:33:29.634Z,430
2018-08-08T08:34:39.581Z,440
2018-08-08T08:35:49.801Z,465
2018-08-08T08:37:00.072Z,500
2018-08-08T08:38:10.254Z,515
2018-08-08T08:39:20.432Z,540
2018-08-08T08:40:31.562Z,570
2018-08-08T08:41:41.704Z,600
2018-08-08T08:42:52.092Z,735
2018-08-08T08:44:02.313Z,735
2018-08-08T08:45:12.470Z,890
2018-08-08T08:46:22.390Z,1275
2018-08-08T08:47:32.540Z,1045
2018-08-08T08:48:42.714Z,905
2018-08-08T08:49:52.780Z,560
2018-08-08T08:51:02.945Z,945
2018-08-08T08:52:12.865Z,980
2018-08-08T08:53:23.035Z,785
2018-08-08T08:54:33.926Z,970
2018-08-08T08:55:44.090Z,1075
2018-08-08T08:56:54.272Z,915
2018-08-08T08:58:04.447Z,1030
2018-08-08T08:59:14.329Z,890
2018-08-08T09:00:24.504Z,880
2018-08-08T09:01:34.468Z,1075
2018-08-08T09:02:44.848Z,1720
2018-08-08T09:03:54.987Z,2310
2018-08-08T09:05:05.156Z,2225
2018-08-08T09:06:15.308Z,1605
2018-08-08T09:07:25.513Z,1055
2018-08-08T09:08:35.762Z,740
2018-08-08T09:09:45.693Z,650
2018-08-08T09:10:55.857Z,720
2018-08-08T09:12:06.098Z,820
2018-08-08T09:13:16.378Z,705
2018-08-08T09:14:26.540Z,765
2018-08-08T09:15:36.822Z,820
2018-08-08T09:16:47.002Z,845
2018-08-08T09:17:57.169Z,850
2018-08-08T09:19:07.352Z,610
2018-08-08T09:20:17.555Z,515
2018-08-08T09:21:27.801Z,525
2018-08-08T09:22:38.050Z,535
2018-08-08T09:23:48.487Z,555
2018-08-08T09:24:58.701Z,625
2018-08-08T09:26:08.630Z,780
2018-08-08T09:27:18.867Z,1415
2018-08-08T09:28:29.346Z,1795
2018-08-08T09:29:39.505Z,1795
2018-08-08T09:30:49.943Z,1790
2018-08-08T09:32:00.239Z,1695
2018-08-08T09:33:10.133Z,1440
2018-08-08T09:34:20.295Z,1080
2018-08-08T09:35:29.945Z,1115
2018-08-08T09:36:40.101Z,1195
2018-08-08T09:37:50.080Z,1275
2018-08-08T09:39:00.270Z,1295
2018-08-08T09:40:10.637Z,1290
2018-08-08T09:41:20.646Z,1165
2018-08-08T09:42:31.072Z,1325
2018-08-08T09:43:41.284Z,1940
2018-08-08T09:44:51.444Z,1855
2018-08-08T09:46:01.606Z,1500
2018-08-08T09:47:11.756Z,1660
2018-08-08T09:48:21.586Z,1950
2018-08-08T09:49:31.725Z,1865
2018-08-08T09:50:42.903Z,1025
2018-08-08T09:51:53.099Z,990
2018-08-08T09:53:04.261Z,1050
2018-08-08T09:54:14.146Z,855
2018-08-08T09:55:24.306Z,740
2018-08-08T09:56:34.880Z,945
2018-08-08T09:57:45.160Z,840
2018-08-08T09:58:56.302Z,1495
2018-08-08T10:00:06.537Z,1560
2018-08-08T10:01:16.090Z,1180
2018-08-08T10:02:26.293Z,965
2018-08-08T10:03:37.193Z,875
2018-08-08T10:04:47.477Z,1035
2018-08-08T10:05:58.626Z,1120
2018-08-08T10:07:08.838Z,970
2018-08-08T10:08:19.118Z,1200
2018-08-08T10:09:29.343Z,1610
2018-08-08T10:10:39.142Z,1890
2018-08-08T10:11:49.040Z,1895
2018-08-08T10:12:59.208Z,2115
2018-08-08T10:14:10.348Z,2145
2018-08-08T10:15:20.319Z,1985
2018-08-08T10:16:30.505Z,1470
2018-08-08T10:17:40.669Z,1355
2018-08-08T10:18:50.287Z,1975
2018-08-08T10:20:01.647Z,2070
2018-08-08T10:21:11.543Z,1895
2018-08-08T10:22:21.491Z,1805
2018-08-08T10:23:31.662Z,1870
2018-08-08T10:24:41.889Z,2460
2018-08-08T10:25:52.065Z,2460
2018-08-08T10:27:02.477Z,2535
2018-08-08T10:28:12.682Z,2575
2018-08-08T10:29:23.147Z,2530
2018-08-08T10:30:33.343Z,2585
2018-08-08T10:31:46.580Z,2685
2018-08-08T10:32:59.382Z,2720
2018-08-08T10:34:10.599Z,2705
2018-08-08T10:35:22.202Z,2680
2018-08-08T10:36:33.373Z,2650
2018-08-08T10:37:47.171Z,2600
2018-08-08T10:38:58.351Z,2630
2018-08-08T10:40:08.544Z,2690
2018-08-08T10:41:18.725Z,2755
2018-08-08T10:42:28.912Z,2785
2018-08-08T10:43:39.122Z,2805
2018-08-08T10:44:49.313Z,2800
2018-08-08T10:45:59.549Z,2780
2018-08-08T10:47:09.738Z,1620
2018-08-08T10:48:19.973Z,2345
2018-08-08T10:49:29.924Z,2775
2018-08-08T10:50:40.173Z,2780
2018-08-08T10:51:50.449Z,2805
2018-08-08T10:53:00.762Z,2815
2018-08-08T10:54:10.969Z,605
2018-08-08T10:56:36.300Z,1620
2018-08-08T10:57:46.544Z,3010
2018-08-08T11:02:42.490Z,2445
2018-08-08T11:03:52.718Z,2685
2018-08-08T11:05:03.585Z,2680
2018-08-08T11:06:13.766Z,2645
2018-08-08T11:07:24.089Z,2645
2018-08-08T11:08:35.242Z,2650
2018-08-08T11:09:45.454Z,2620
2018-08-08T11:10:56.676Z,2590
2018-08-08T11:12:06.926Z,2570
2018-08-08T11:13:16.974Z,2395
2018-08-08T11:14:28.587Z,2545
2018-08-08T11:15:41.452Z,2605
2018-08-08T11:16:53.930Z,2275
2018-08-08T11:18:03.965Z,2450
2018-08-08T11:19:13.964Z,2360
2018-08-08T11:20:24.259Z,2595
2018-08-08T11:21:34.195Z,2765
2018-08-08T11:22:44.676Z,2840
2018-08-08T11:23:54.507Z,2830
2018-08-08T11:25:04.684Z,2770
2018-08-08T11:26:15.134Z,2655
2018-08-08T11:27:26.278Z,2585
2018-08-08T11:28:36.679Z,2610
2018-08-08T11:29:46.963Z,2635
2018-08-08T11:30:57.165Z,2645
2018-08-08T11:32:07.407Z,2625
2018-08-08T11:33:17.576Z,2600
2018-08-08T11:34:27.767Z,2605
2018-08-08T11:35:37.975Z,2600
2018-08-08T11:36:48.368Z,2600
2018-08-08T11:37:58.568Z,2685
2018-08-08T11:39:08.868Z,2680
2018-08-08T11:40:18.841Z,2565
2018-08-08T11:41:29.110Z,2610
2018-08-08T11:42:43.315Z,2585
2018-08-08T11:43:59.437Z,2580
2018-08-08T11:46:38.328Z,2505
2018-08-08T11:47:52.784Z,1490
2018-08-08T11:49:03.106Z,980
2018-08-08T11:50:13.335Z,2500
2018-08-08T11:51:23.765Z,2690
2018-08-08T11:52:33.957Z,2640
2018-08-08T11:53:44.185Z,2295
2018-08-08T11:54:54.452Z,2585
2018-08-08T11:56:06.644Z,2580
2018-08-08T11:57:24.262Z,1515
2018-08-08T11:58:34.474Z,1730
2018-08-08T11:59:44.837Z,2380
2018-08-08T12:00:55.144Z,2055
2018-08-08T12:02:05.348Z,2555
2018-08-08T12:03:15.604Z,2705
2018-08-08T12:04:25.554Z,1305
2018-08-08T12:05:36.011Z,1085
2018-08-08T12:06:46.159Z,1015
2018-08-08T12:07:58.305Z,785
2018-08-08T12:09:08.529Z,750
2018-08-08T12:10:18.728Z,830
2018-08-08T12:11:28.995Z,1700
2018-08-08T12:12:39.206Z,810
2018-08-08T12:13:49.529Z,2485
2018-08-08T12:14:59.744Z,2335
2018-08-08T12:16:09.950Z,2580
2018-08-08T12:17:19.841Z,2625
2018-08-08T12:18:31.024Z,2600
2018-08-08T12:19:41.118Z,2585
2018-08-08T12:20:51.301Z,2495
2018-08-08T12:22:01.840Z,2425
2018-08-08T12:23:12.109Z,2420
2018-08-08T12:24:22.483Z,2365
2018-08-08T12:25:32.760Z,2350
2018-08-08T12:26:42.993Z,2370
2018-08-08T12:27:53.238Z,2400
2018-08-08T12:29:03.678Z,2340
2018-08-08T12:30:13.987Z,2320
2018-08-08T12:31:24.288Z,2310
2018-08-08T12:32:34.577Z,2335
2018-08-08T12:33:44.856Z,2380
2018-08-08T12:34:55.064Z,2335
2018-08-08T12:36:06.224Z,975
2018-08-08T12:37:16.406Z,2220
2018-08-08T12:38:26.606Z,2215
2018-08-08T12:39:36.811Z,2175
2018-08-08T12:40:47.089Z,2195
2018-08-08T12:41:57.335Z,2215
2018-08-08T12:43:07.612Z,2340
2018-08-08T12:44:17.841Z,2330
2018-08-08T12:45:28.014Z,2335
2018-08-08T12:46:38.243Z,2280
2018-08-08T12:47:49.169Z,2205
2018-08-08T12:48:59.438Z,2280
2018-08-08T12:50:09.652Z,2155
2018-08-08T12:51:19.935Z,740
2018-08-08T12:52:30.136Z,645
2018-08-08T12:53:40.036Z,1095
2018-08-08T12:54:50.208Z,1045
2018-08-08T12:56:03.877Z,630
2018-08-08T12:57:14.069Z,635
2018-08-08T12:58:24.270Z,1250
2018-08-08T12:59:35.078Z,620
2018-08-08T13:00:45.381Z,675
2018-08-08T13:01:55.626Z,735
2018-08-08T13:03:05.530Z,2025
2018-08-08T13:04:15.712Z,2060
2018-08-08T13:05:25.995Z,2165
2018-08-08T13:06:35.801Z,1280
2018-08-08T13:07:45.897Z,1840
2018-08-08T13:08:56.099Z,2250
2018-08-08T13:10:06.410Z,2220
2018-08-08T13:11:16.612Z,2210
2018-08-08T13:12:26.963Z,2315
2018-08-08T13:13:37.197Z,2325
2018-08-08T13:14:47.442Z,2310
2018-08-08T13:15:57.625Z,2305
2018-08-08T13:17:07.775Z,2225
2018-08-08T13:18:18.184Z,2240
2018-08-08T13:19:28.335Z,2230
2018-08-08T13:20:38.582Z,2150
2018-08-08T13:21:48.879Z,2000
2018-08-08T13:22:59.134Z,715
2018-08-08T13:24:09.129Z,2040
2018-08-08T13:25:19.387Z,2055
2018-08-08T13:26:29.624Z,2070
2018-08-08T13:27:39.528Z,1895
2018-08-08T13:28:49.480Z,1160
2018-08-08T13:30:00.761Z,1805
2018-08-08T13:31:10.842Z,2070
2018-08-08T13:32:21.790Z,2060
2018-08-08T13:33:32.007Z,2055
2018-08-08T13:34:42.207Z,1610
2018-08-08T13:35:52.027Z,1730
2018-08-08T13:37:02.218Z,670
2018-08-08T13:38:12.363Z,1260
2018-08-08T13:39:22.931Z,2110
2018-08-08T13:40:33.287Z,2030
2018-08-08T13:41:43.505Z,2070
2018-08-08T13:42:53.790Z,635
2018-08-08T13:44:03.953Z,520
2018-08-08T13:45:14.296Z,525
2018-08-08T13:46:24.265Z,570
2018-08-08T13:47:34.492Z,1500
2018-08-08T13:48:45.394Z,1745
2018-08-08T13:49:55.619Z,1895
2018-08-08T13:51:05.797Z,1890
2018-08-08T13:52:15.978Z,1840
2018-08-08T13:53:26.638Z,1905
2018-08-08T13:54:37.636Z,1440
2018-08-08T13:55:47.804Z,820
2018-08-08T13:56:57.814Z,1505
2018-08-08T13:59:31.500Z,1860
2018-08-08T14:00:47.043Z,1840
2018-08-08T14:01:57.255Z,1775
2018-08-08T14:03:07.521Z,1720
2018-08-08T14:04:17.727Z,1765
2018-08-08T14:05:27.958Z,1730
2018-08-08T14:06:38.211Z,1650
2018-08-08T14:07:48.412Z,1755
2018-08-08T14:08:58.576Z,1715
2018-08-08T14:10:08.815Z,1670
2018-08-08T14:11:18.999Z,1610
2018-08-08T14:12:29.726Z,1670
2018-08-08T14:13:39.655Z,1665
2018-08-08T14:14:49.849Z,1690
2018-08-08T14:16:00.273Z,1620
2018-08-08T14:17:10.204Z,1615
2018-08-08T14:18:20.327Z,1595
2018-08-08T14:19:30.542Z,1605
2018-08-08T14:20:40.949Z,1635
2018-08-08T14:21:51.241Z,1590
2018-08-08T14:23:01.443Z,1585
2018-08-08T14:24:11.639Z,1630
2018-08-08T14:25:22.042Z,1735
2018-08-08T14:26:31.900Z,1780
2018-08-08T14:27:42.108Z,1690
2018-08-08T14:28:52.108Z,1685
2018-08-08T14:30:02.292Z,1585
2018-08-08T14:31:12.497Z,1555
2018-08-08T14:32:22.712Z,1015
2018-08-08T14:33:33.883Z,1410
2018-08-08T14:34:44.298Z,1355
2018-08-08T14:35:54.489Z,1400
2018-08-08T14:37:04.739Z,1415
2018-08-08T14:38:16.315Z,1350
2018-08-08T14:39:26.510Z,1225
2018-08-08T14:40:36.728Z,1210
2018-08-08T14:41:46.927Z,1215
2018-08-08T14:42:57.142Z,1205
2018-08-08T14:44:07.345Z,1180
2018-08-08T14:45:18.291Z,1175
2018-08-08T14:46:28.533Z,1130
2018-08-08T14:47:38.778Z,1160
2018-08-08T14:48:50.136Z,1205
2018-08-08T14:50:00.069Z,1225
2018-08-08T14:51:09.977Z,1185
2018-08-08T14:52:20.235Z,1250
2018-08-08T14:53:30.529Z,1230
2018-08-08T14:54:40.773Z,1195
2018-08-08T14:55:50.969Z,1265
2018-08-08T14:57:01.155Z,1270
2018-08-08T14:58:11.035Z,1195
2018-08-08T14:59:21.279Z,1210
2018-08-08T15:00:31.480Z,1175
2018-08-08T15:01:41.415Z,1205
2018-08-08T15:02:51.603Z,1230
2018-08-08T15:04:01.911Z,1235
2018-08-08T15:05:12.240Z,1215
2018-08-08T15:06:22.795Z,1240
2018-08-08T15:07:33.023Z,1255
2018-08-08T15:08:44.022Z,1255
2018-08-08T15:09:54.192Z,1255
2018-08-08T15:11:04.251Z,1230
2018-08-08T15:12:14.534Z,1185
2018-08-08T15:13:24.696Z,1170
2018-08-08T15:14:34.874Z,1175
2018-08-08T15:15:45.106Z,1180
2018-08-08T15:16:55.323Z,1185
2018-08-08T15:18:05.518Z,1210
2018-08-08T15:19:15.755Z,1230
2018-08-08T15:20:25.614Z,1220
2018-08-08T15:21:35.818Z,1255
2018-08-08T15:22:45.752Z,1215
2018-08-08T15:23:55.903Z,1185
2018-08-08T15:25:05.576Z,1155
2018-08-08T15:26:15.823Z,1135
2018-08-08T15:27:26.049Z,1100
2018-08-08T15:28:36.081Z,1060
2018-08-08T15:29:46.280Z,1040
2018-08-08T15:30:56.619Z,1020
2018-08-08T15:32:06.909Z,935
2018-08-08T15:33:17.088Z,895
2018-08-08T15:34:27.481Z,785
2018-08-08T15:35:37.700Z,550
2018-08-08T15:36:48.984Z,460
2018-08-08T15:37:59.755Z,430
2018-08-08T15:39:10.005Z,410
2018-08-08T15:40:20.302Z,405
2018-08-08T15:41:30.529Z,400
2018-08-08T15:42:40.722Z,395
2018-08-08T15:43:50.917Z,395
2018-08-08T15:45:01.226Z,385
2018-08-08T15:46:11.463Z,390
2018-08-08T15:47:21.916Z,390
2018-08-08T15:48:32.101Z,380
2018-08-08T15:49:42.286Z,370
2018-08-08T15:50:52.229Z,380
2018-08-08T15:52:03.510Z,380
2018-08-08T15:53:13.769Z,380
2018-08-08T15:54:24.099Z,375
2018-08-08T15:55:34.301Z,370
2018-08-08T15:56:44.563Z,370
2018-08-08T15:57:54.773Z,365
2018-08-08T15:59:04.970Z,355
2018-08-08T16:00:15.165Z,350
2018-08-08T16:01:25.331Z,350
2018-08-08T16:02:35.825Z,350
2018-08-08T16:03:46.009Z,350
2018-08-08T16:04:56.201Z,345
2018-08-08T16:06:07.416Z,335
2018-08-08T16:07:17.636Z,325
2018-08-08T16:08:27.827Z,320
2018-08-08T16:09:37.993Z,315
2018-08-08T16:10:47.817Z,300
2018-08-08T16:11:57.809Z,290
2018-08-08T16:13:08.040Z,285
2018-08-08T16:14:18.233Z,265
2018-08-08T16:15:28.453Z,265
2018-08-08T16:16:38.657Z,250
2018-08-08T16:17:48.860Z,235
2018-08-08T16:19:00.044Z,225
2018-08-08T16:20:10.371Z,220
2018-08-08T16:21:20.615Z,220
2018-08-08T16:22:30.850Z,220
2018-08-08T16:23:41.475Z,220